KTRM/TRM METAR and TAF weather

Enter ICAO airport designator
Station Type Date Time Source
KTRM METAR 2020/01/27 10:52 UTC NOAA

KTRM 271052Z AUTO 36007KT 7SM CLR 14/07 A3007 RMK AO2 SLP184 T01440067


Station Type Date Time Source
KTRM Decoded METAR 2020/01/27 10:52 UTC NOAA

Palm Springs, Jacqueline Cochran Regional Airport, CA, United States (KTRM) 33-37-36N 116-09-34W
Jan 27, 2020 - 05:52 AM EST / 2020.01.27 1052 UTC
Wind: from the N (360 degrees) at 8 MPH (7 KT):0
Visibility: 7 mile(s):0
Sky conditions: clear
Temperature: 57.9 F (14.4 C)
Dew Point: 44.1 F (6.7 C)
Relative Humidity: 59%
Pressure (altimeter): 30.07 in. Hg (1018 hPa)
ob: KTRM 271052Z AUTO 36007KT 7SM CLR 14/07 A3007 RMK AO2 SLP184 T01440067
cycle: 11

Station Type Date Time Source
KTRM TAF 2020/01/27 06:22 UTC NOAA

TAF KTRM 270520Z 2706/2806 33005KT P6SM SKC

Example: see airport list